KDLS/DLS METAR and TAF weather

Enter ICAO airport designator
Station Type Date Time Source
KDLS METAR 2020/07/04 00:53 UTC NOAA

KDLS 040053Z AUTO 29018G30KT 10SM CLR 25/06 A2997 RMK AO2 PK WND 29031/0030 SLP148 T02500056


Station Type Date Time Source
KDLS Decoded METAR 2020/07/04 00:53 UTC NOAA

THE DALLES MUNICIPAL AIRPORT , OR, United States (KDLS) 45-37N 121-10W 71M
Jul 03, 2020 - 08:53 PM EDT / 2020.07.04 0053 UTC
Wind: from the WNW (290 degrees) at 21 MPH (18 KT) gusting to 35 MPH (30 KT):0
Visibility: 10 mile(s):0
Sky conditions: clear
Temperature: 77.0 F (25.0 C)
Dew Point: 42.1 F (5.6 C)
Relative Humidity: 28%
Pressure (altimeter): 29.97 in. Hg (1014 hPa)
ob: KDLS 040053Z AUTO 29018G30KT 10SM CLR 25/06 A2997 RMK AO2 PK WND 29031/0030 SLP148 T02500056
cycle: 1

Station Type Date Time Source
KDLS TAF 2020/07/03 20:30 UTC NOAA

TAF
AMD KDLS 032027Z 0320/0418 31015G25KT P6SM FEW200
FM040400 30011KT P6SM SKC
FM040800 30006KT P6SM SKC
FM041500 21007G13KT P6SM FEW250

Example: see airport list